Time,TemperatureF,DewpointF,PressureIn,WindDirection,WindDirectionDegrees,WindSpeedMPH,WindSpeedGustMPH,Humidity,HourlyPrecipIn,Conditions,Clouds,dailyrainin,SoftwareType,DateUTC
2013-05-27 00:13:00,49.7,48.0,29.69,SW,224,3.0,3.0,93,0.00,,,0.00,weatherlink.com 1.10,2013-05-27 06:13:00,
2013-05-27 00:28:00,48.7,46.0,29.69,SW,214,3.0,4.0,90,0.00,,,0.00,weatherlink.com 1.10,2013-05-27 06:28:00,
2013-05-27 00:42:00,50.3,47.0,29.69,SW,236,2.0,4.0,89,0.00,,,0.00,weatherlink.com 1.10,2013-05-27 06:42:00,
2013-05-27 00:56:00,49.1,47.0,29.69,SW,226,2.0,3.0,91,0.00,,,0.00,weatherlink.com 1.10,2013-05-27 06:56:00,
2013-05-27 01:11:00,48.1,45.0,29.69,SSW,203,4.0,4.0,88,0.00,,,0.00,weatherlink.com 1.10,2013-05-27 07:11:00,
2013-05-27 01:26:00,47.6,45.0,29.69,SW,219,4.0,4.0,91,0.00,,,0.00,weatherlink.com 1.10,2013-05-27 07:26:00,
2013-05-27 01:40:00,47.5,45.0,29.69,SSW,212,2.0,3.0,92,0.00,,,0.00,weatherlink.com 1.10,2013-05-27 07:40:00,
2013-05-27 01:55:00,47.7,44.0,29.69,SSE,148,0.0,2.0,88,0.00,,,0.00,weatherlink.com 1.10,2013-05-27 07:55:00,
2013-05-27 02:09:00,46.0,43.0,29.69,SSW,201,2.0,4.0,90,0.00,,,0.00,weatherlink.com 1.10,2013-05-27 08:09:00,
2013-05-27 02:24:00,48.6,45.0,29.69,WSW,237,0.0,2.0,88,0.00,,,0.00,weatherlink.com 1.10,2013-05-27 08:24:00,
2013-05-27 02:38:00,46.2,43.0,29.69,SSW,193,2.0,3.0,90,0.00,,,0.00,weatherlink.com 1.10,2013-05-27 08:38:00,
2013-05-27 02:52:00,46.5,44.0,29.69,SW,215,4.0,4.0,92,0.00,,,0.00,weatherlink.com 1.10,2013-05-27 08:52:00,
2013-05-27 03:07:00,46.1,43.0,29.69,WNW,302,1.0,2.0,90,0.00,,,0.00,weatherlink.com 1.10,2013-05-27 09:07:00,
2013-05-27 03:21:00,44.5,43.0,29.69,NW,305,0.0,1.0,93,0.00,,,0.00,weatherlink.com 1.10,2013-05-27 09:21:00,
2013-05-27 03:35:00,45.3,43.0,29.70,SSW,203,3.0,3.0,92,0.00,,,0.00,weatherlink.com 1.10,2013-05-27 09:35:00,
2013-05-27 03:49:00,45.4,44.0,29.70,SW,232,1.0,1.0,94,0.00,,,0.00,weatherlink.com 1.10,2013-05-27 09:49:00,
2013-05-27 04:04:00,45.2,43.0,29.71,West,263,1.0,1.0,92,0.00,,,0.00,weatherlink.com 1.10,2013-05-27 10:04:00,
2013-05-27 04:18:00,45.5,44.0,29.72,North,353,0.0,1.0,94,0.00,,,0.00,weatherlink.com 1.10,2013-05-27 10:18:00,
2013-05-27 04:32:00,45.4,44.0,29.71,South,177,2.0,4.0,94,0.00,,,0.00,weatherlink.com 1.10,2013-05-27 10:32:00,
2013-05-27 04:46:00,46.3,45.0,29.71,SE,138,1.0,2.0,94,0.00,,,0.00,weatherlink.com 1.10,2013-05-27 10:46:00,
2013-05-27 05:00:00,47.7,45.0,29.72,NNE,21,3.0,7.0,92,0.00,,,0.00,weatherlink.com 1.10,2013-05-27 11:00:00,
2013-05-27 05:14:00,49.5,47.0,29.72,North,351,7.0,7.0,91,0.00,,,0.00,weatherlink.com 1.10,2013-05-27 11:14:00,
2013-05-27 05:28:00,49.8,48.0,29.73,NW,323,4.0,8.0,93,0.00,,,0.00,weatherlink.com 1.10,2013-05-27 11:28:00,
2013-05-27 05:43:00,50.4,49.0,29.71,NNE,29,5.0,7.0,94,0.00,,,0.00,weatherlink.com 1.10,2013-05-27 11:43:00,
2013-05-27 05:57:00,50.4,49.0,29.71,NNW,340,5.0,7.0,94,0.00,,,0.00,weatherlink.com 1.10,2013-05-27 11:57:00,
2013-05-27 06:12:00,50.9,49.0,29.71,NNW,339,7.0,11.0,94,0.00,,,0.00,weatherlink.com 1.10,2013-05-27 12:12:00,
2013-05-27 06:26:00,50.9,49.0,29.71,NNW,340,3.0,9.0,94,0.00,,,0.00,weatherlink.com 1.10,2013-05-27 12:26:00,
2013-05-27 06:40:00,51.2,50.0,29.73,NNW,328,6.0,6.0,94,0.00,,,0.00,weatherlink.com 1.10,2013-05-27 12:40:00,
2013-05-27 06:55:00,51.4,50.0,29.73,North,8,10.0,11.0,94,0.00,,,0.00,weatherlink.com 1.10,2013-05-27 12:55:00,
2013-05-27 07:10:00,51.8,50.0,29.74,NNW,342,10.0,15.0,93,0.00,,,0.00,weatherlink.com 1.10,2013-05-27 13:10:00,
2013-05-27 07:24:00,51.8,50.0,29.74,North,5,10.0,15.0,93,0.00,,,0.00,weatherlink.com 1.10,2013-05-27 13:24:00,
2013-05-27 07:39:00,52.0,50.0,29.73,NNW,345,9.0,15.0,92,0.00,,,0.00,weatherlink.com 1.10,2013-05-27 13:39:00,
2013-05-27 07:53:00,52.5,50.0,29.74,North,1,7.0,11.0,92,0.00,,,0.00,weatherlink.com 1.10,2013-05-27 13:53:00,
2013-05-27 08:08:00,52.8,50.0,29.76,North,6,6.0,10.0,91,0.00,,,0.00,weatherlink.com 1.10,2013-05-27 14:08:00,
2013-05-27 08:22:00,52.8,50.0,29.74,NNW,335,6.0,9.0,91,0.00,,,0.00,weatherlink.com 1.10,2013-05-27 14:22:00,
2013-05-27 08:36:00,53.8,51.0,29.72,NNW,338,15.0,15.0,90,0.00,,,0.00,weatherlink.com 1.10,2013-05-27 14:36:00,
2013-05-27 08:51:00,57.5,53.0,29.72,NW,326,15.0,20.0,84,0.00,,,0.00,weatherlink.com 1.10,2013-05-27 14:51:00,
2013-05-27 09:05:00,59.8,51.0,29.71,NNE,13,16.0,18.0,73,0.00,,,0.00,weatherlink.com 1.10,2013-05-27 15:05:00,
2013-05-27 09:20:00,58.6,50.0,29.70,NNE,20,15.0,19.0,73,0.00,,,0.00,weatherlink.com 1.10,2013-05-27 15:20:00,
2013-05-27 09:34:00,58.7,50.0,29.69,NNE,19,6.0,14.0,72,0.00,,,0.00,weatherlink.com 1.10,2013-05-27 15:34:00,
2013-05-27 09:49:00,57.8,49.0,29.69,NE,43,5.0,12.0,73,0.00,,,0.00,weatherlink.com 1.10,2013-05-27 15:49:00,
2013-05-27 10:03:00,57.0,49.0,29.69,NNE,32,3.0,7.0,75,0.00,,,0.00,weatherlink.com 1.10,2013-05-27 16:03:00,
2013-05-27 10:18:00,58.9,51.0,29.68,SE,127,1.0,5.0,76,0.00,,,0.00,weatherlink.com 1.10,2013-05-27 16:18:00,
2013-05-27 10:32:00,60.0,49.0,29.67,North,352,2.0,8.0,68,0.00,,,0.00,weatherlink.com 1.10,2013-05-27 16:32:00,
2013-05-27 10:46:00,60.8,51.0,29.68,NNW,336,3.0,8.0,70,0.00,,,0.00,weatherlink.com 1.10,2013-05-27 16:46:00,
2013-05-27 11:01:00,62.2,51.0,29.67,East,98,0.0,5.0,67,0.00,,,0.00,weatherlink.com 1.10,2013-05-27 17:01:00,
2013-05-27 11:15:00,64.7,53.0,29.67,ESE,113,7.0,7.0,65,0.00,,,0.00,weatherlink.com 1.10,2013-05-27 17:15:00,
2013-05-27 11:29:00,65.1,51.0,29.67,East,89,4.0,6.0,60,0.00,,,0.00,weatherlink.com 1.10,2013-05-27 17:29:00,
2013-05-27 11:44:00,64.8,51.0,29.66,ENE,70,4.0,8.0,61,0.00,,,0.00,weatherlink.com 1.10,2013-05-27 17:44:00,
2013-05-27 11:58:00,65.8,52.0,29.66,SE,138,2.0,7.0,60,0.00,,,0.00,weatherlink.com 1.10,2013-05-27 17:58:00,
2013-05-27 12:13:00,64.3,51.0,29.66,ENE,61,4.0,6.0,61,0.00,,,0.00,weatherlink.com 1.10,2013-05-27 18:13:00,
2013-05-27 12:27:00,66.5,51.0,29.65,SSE,148,5.0,6.0,58,0.00,,,0.00,weatherlink.com 1.10,2013-05-27 18:27:00,
2013-05-27 12:41:00,66.2,51.0,29.65,ESE,115,3.0,7.0,59,0.00,,,0.00,weatherlink.com 1.10,2013-05-27 18:41:00,
2013-05-27 12:56:00,67.5,52.0,29.64,SE,130,9.0,9.0,58,0.00,,,0.00,weatherlink.com 1.10,2013-05-27 18:56:00,
2013-05-27 13:10:00,67.1,52.0,29.64,SE,134,13.0,13.0,58,0.00,,,0.00,weatherlink.com 1.10,2013-05-27 19:10:00,
2013-05-27 13:25:00,67.1,53.0,29.63,ESE,109,12.0,14.0,61,0.00,,,0.00,weatherlink.com 1.10,2013-05-27 19:25:00,
2013-05-27 13:39:00,64.8,52.0,29.62,ESE,108,9.0,14.0,63,0.00,,,0.00,weatherlink.com 1.10,2013-05-27 19:39:00,
2013-05-27 13:53:00,63.3,51.0,29.62,SE,129,12.0,16.0,64,0.00,,,0.00,weatherlink.com 1.10,2013-05-27 19:53:00,
2013-05-27 14:08:00,62.3,51.0,29.63,ESE,109,2.0,11.0,67,0.00,,,0.00,weatherlink.com 1.10,2013-05-27 20:08:00,
2013-05-27 14:22:00,62.0,51.0,29.64,ENE,68,3.0,4.0,67,0.00,,,0.00,weatherlink.com 1.10,2013-05-27 20:22:00,
2013-05-27 14:36:00,62.0,53.0,29.62,ESE,121,1.0,4.0,72,0.00,,,0.00,weatherlink.com 1.10,2013-05-27 20:36:00,
2013-05-27 14:50:00,65.1,53.0,29.63,WNW,303,7.0,7.0,65,0.00,,,0.00,weatherlink.com 1.10,2013-05-27 20:50:00,
2013-05-27 15:05:00,66.0,45.0,29.64,NW,311,11.0,14.0,46,0.00,,,0.00,weatherlink.com 1.10,2013-05-27 21:05:00,
2013-05-27 15:19:00,66.8,39.0,29.62,NNE,18,3.0,10.0,36,0.00,,,0.00,weatherlink.com 1.10,2013-05-27 21:19:00,
2013-05-27 15:33:00,66.5,39.0,29.62,NE,49,4.0,11.0,37,0.00,,,0.00,weatherlink.com 1.10,2013-05-27 21:33:00,
2013-05-27 15:47:00,67.0,40.0,29.62,NNE,28,7.0,13.0,37,0.00,,,0.00,weatherlink.com 1.10,2013-05-27 21:47:00,
2013-05-27 16:01:00,67.7,40.0,29.62,NNE,20,5.0,12.0,36,0.00,,,0.00,weatherlink.com 1.10,2013-05-27 22:01:00,
2013-05-27 16:15:00,68.0,39.0,29.62,NNW,338,3.0,10.0,34,0.00,,,0.00,weatherlink.com 1.10,2013-05-27 22:15:00,
2013-05-27 16:29:00,65.5,38.0,29.64,NNW,335,23.0,28.0,36,0.00,,,0.00,weatherlink.com 1.10,2013-05-27 22:29:00,
2013-05-27 16:43:00,63.2,41.0,29.65,NNW,334,16.0,27.0,44,0.00,,,0.00,weatherlink.com 1.10,2013-05-27 22:43:00,
2013-05-27 16:58:00,62.9,39.0,29.65,NNW,342,20.0,24.0,41,0.00,,,0.00,weatherlink.com 1.10,2013-05-27 22:58:00,
2013-05-27 17:12:00,62.5,41.0,29.66,NNW,347,11.0,20.0,46,0.00,,,0.00,weatherlink.com 1.10,2013-05-27 23:12:00,
2013-05-27 17:26:00,62.6,41.0,29.66,NNE,12,15.0,21.0,45,0.00,,,0.00,weatherlink.com 1.10,2013-05-27 23:26:00,
2013-05-27 17:40:00,62.4,42.0,29.66,NNW,333,12.0,22.0,47,0.00,,,0.00,weatherlink.com 1.10,2013-05-27 23:40:00,
2013-05-27 17:54:00,62.2,42.0,29.66,North,9,14.0,22.0,48,0.00,,,0.00,weatherlink.com 1.10,2013-05-27 23:54:00,
2013-05-27 18:09:00,62.0,44.0,29.66,North,354,8.0,17.0,51,0.00,,,0.00,weatherlink.com 1.10,2013-05-28 00:09:00,
2013-05-27 18:23:00,61.7,41.0,29.66,North,349,18.0,22.0,47,0.00,,,0.00,weatherlink.com 1.10,2013-05-28 00:23:00,
2013-05-27 18:38:00,61.1,43.0,29.66,North,4,15.0,23.0,51,0.00,,,0.00,weatherlink.com 1.10,2013-05-28 00:38:00,
2013-05-27 18:52:00,60.6,43.0,29.66,North,349,13.0,23.0,53,0.00,,,0.00,weatherlink.com 1.10,2013-05-28 00:52:00,
2013-05-27 19:07:00,60.2,43.0,29.66,NNW,340,20.0,23.0,53,0.00,,,0.00,weatherlink.com 1.10,2013-05-28 01:07:00,
2013-05-27 19:21:00,60.2,44.0,29.67,North,351,12.0,17.0,56,0.00,,,0.00,weatherlink.com 1.10,2013-05-28 01:21:00,
2013-05-27 19:36:00,59.7,42.0,29.67,North,351,18.0,25.0,52,0.00,,,0.00,weatherlink.com 1.10,2013-05-28 01:36:00,
2013-05-27 19:50:00,59.1,42.0,29.68,NNW,339,13.0,15.0,54,0.00,,,0.00,weatherlink.com 1.10,2013-05-28 01:50:00,
2013-05-27 20:05:00,58.4,42.0,29.68,North,6,10.0,19.0,55,0.00,,,0.00,weatherlink.com 1.10,2013-05-28 02:05:00,
2013-05-27 20:19:00,57.2,42.0,29.69,North,351,9.0,17.0,56,0.00,,,0.00,weatherlink.com 1.10,2013-05-28 02:19:00,
2013-05-27 20:34:00,55.5,42.0,29.70,NNW,342,8.0,13.0,60,0.00,,,0.00,weatherlink.com 1.10,2013-05-28 02:34:00,
2013-05-27 20:48:00,53.9,41.0,29.71,North,353,5.0,8.0,62,0.00,,,0.00,weatherlink.com 1.10,2013-05-28 02:48:00,
2013-05-27 21:03:00,53.4,41.0,29.70,NNW,347,7.0,9.0,62,0.00,,,0.00,weatherlink.com 1.10,2013-05-28 03:03:00,
2013-05-27 21:17:00,52.7,40.0,29.71,NNW,347,4.0,9.0,63,0.00,,,0.00,weatherlink.com 1.10,2013-05-28 03:17:00,
2013-05-27 21:31:00,51.9,41.0,29.71,NNW,333,6.0,9.0,66,0.00,,,0.00,weatherlink.com 1.10,2013-05-28 03:31:00,
2013-05-27 21:45:00,51.2,41.0,29.71,NNW,345,6.0,6.0,68,0.00,,,0.00,weatherlink.com 1.10,2013-05-28 03:45:00,
2013-05-27 21:59:00,50.3,41.0,29.72,North,354,4.0,7.0,71,0.00,,,0.00,weatherlink.com 1.10,2013-05-28 03:59:00,
2013-05-27 22:13:00,48.5,41.0,29.73,East,90,1.0,2.0,76,0.00,,,0.00,weatherlink.com 1.10,2013-05-28 04:13:00,
2013-05-27 22:27:00,45.7,40.0,29.74,SE,139,0.0,3.0,80,0.00,,,0.00,weatherlink.com 1.10,2013-05-28 04:27:00,
2013-05-27 22:41:00,46.4,41.0,29.73,SW,225,2.0,2.0,81,0.00,,,0.00,weatherlink.com 1.10,2013-05-28 04:41:00,
2013-05-27 22:55:00,45.4,40.0,29.73,WSW,238,4.0,5.0,82,0.00,,,0.00,weatherlink.com 1.10,2013-05-28 04:55:00,
2013-05-27 23:10:00,46.4,41.0,29.72,SW,236,4.0,4.0,81,0.00,,,0.00,weatherlink.com 1.10,2013-05-28 05:10:00,
2013-05-27 23:25:00,46.1,41.0,29.73,SW,225,4.0,6.0,81,0.00,,,0.00,weatherlink.com 1.10,2013-05-28 05:25:00,
2013-05-27 23:39:00,45.0,40.0,29.73,SW,226,4.0,5.0,84,0.00,,,0.00,weatherlink.com 1.10,2013-05-28 05:39:00,
2013-05-27 23:53:00,43.5,40.0,29.73,SW,225,5.0,6.0,87,0.00,,,0.00,weatherlink.com 1.10,2013-05-28 05:53:00,